Time;durP1;ratioP1;P1;durP2;ratioP2;P2;SDS_P1;SDS_P2;PMS_P1;PMS_P2;Temp;Humidity;BMP_temperature;BMP_pressure;BME280_temperature;BME280_humidity;BME280_pressure;Samples;Min_cycle;Max_cycle;Signal;HPM_P1;HPM_P2
2022/11/02 00:00:00;;;;;;;48.37;17.87;;;8.20;99.90;;;;;;4163818;28;20033;-67
2022/11/02 00:02:02;;;;;;;43.37;17.60;;;8.20;99.90;;;;;;4160531;28;20034;-65
2022/11/02 00:04:03;;;;;;;33.83;17.57;;;8.20;99.90;;;;;;4162909;28;20038;-67
2022/11/02 00:06:05;;;;;;;40.23;16.63;;;8.20;99.90;;;;;;4162174;28;20400;-64
2022/11/02 00:08:06;;;;;;;60.43;20.37;;;8.30;99.90;;;;;;4159419;28;20080;-65
2022/11/02 00:10:08;;;;;;;48.33;21.80;;;8.30;99.90;;;;;;4150205;28;20038;-65
2022/11/02 00:12:09;;;;;;;58.60;23.17;;;8.30;99.90;;;;;;4162245;28;20064;-65
2022/11/02 00:14:11;;;;;;;66.67;26.00;;;8.30;99.90;;;;;;4160575;28;20424;-64
2022/11/02 00:16:14;;;;;;;65.37;25.33;;;8.30;99.90;;;;;;4161498;28;20568;-64
2022/11/02 00:18:15;;;;;;;63.73;26.03;;;8.30;99.90;;;;;;4162546;28;20038;-61
2022/11/02 00:20:19;;;;;;;58.73;23.90;;;8.40;99.90;;;;;;4162267;28;20049;-61
2022/11/02 00:22:21;;;;;;;48.87;19.83;;;8.40;99.90;;;;;;4163307;28;20462;-59
2022/11/02 00:24:22;;;;;;;39.23;18.17;;;8.40;99.90;;;;;;4162324;28;20029;-67
2022/11/02 00:26:24;;;;;;;35.03;16.43;;;8.40;99.90;;;;;;4163338;28;20033;-62
2022/11/02 00:28:27;;;;;;;40.40;16.33;;;8.40;99.90;;;;;;4143878;28;20119;-61
2022/11/02 00:30:28;;;;;;;31.77;15.80;;;8.40;99.90;;;;;;4155970;28;20038;-62
2022/11/02 00:32:29;;;;;;;33.80;16.03;;;8.40;99.90;;;;;;4144890;28;20034;-65
2022/11/02 00:34:30;;;;;;;36.37;16.07;;;8.40;99.90;;;;;;4146887;28;20434;-64
2022/11/02 00:36:32;;;;;;;33.30;16.50;;;8.40;99.90;;;;;;4144816;28;20088;-66
2022/11/02 00:38:34;;;;;;;35.17;15.33;;;8.40;99.90;;;;;;4146692;28;20096;-67
2022/11/02 00:40:35;;;;;;;39.47;16.53;;;8.40;99.90;;;;;;4144691;28;20376;-61
2022/11/02 00:42:36;;;;;;;114.80;47.37;;;8.30;99.90;;;;;;4146202;28;20033;-60
2022/11/02 00:44:37;;;;;;;114.90;52.27;;;8.30;99.90;;;;;;4159231;28;20033;-61
2022/11/02 00:46:38;;;;;;;107.40;49.87;;;8.20;99.90;;;;;;4161347;28;20041;-69
2022/11/02 00:48:39;;;;;;;50.33;22.93;;;8.20;99.90;;;;;;4151017;28;20096;-63
2022/11/02 00:50:40;;;;;;;92.10;38.40;;;8.20;99.90;;;;;;4144652;28;20045;-67
2022/11/02 00:52:42;;;;;;;116.93;52.77;;;8.20;99.90;;;;;;4146441;28;20034;-66
2022/11/02 00:54:43;;;;;;;162.70;66.97;;;8.10;99.90;;;;;;4144242;28;20042;-61
2022/11/02 00:56:44;;;;;;;96.40;49.30;;;8.10;99.90;;;;;;4145617;28;20042;-67
2022/11/02 00:58:45;;;;;;;87.10;43.50;;;8.10;99.90;;;;;;4144390;28;20085;-63
2022/11/02 01:00:46;;;;;;;116.43;54.07;;;8.10;99.90;;;;;;4145880;28;20457;-65
2022/11/02 01:02:47;;;;;;;106.53;49.90;;;8.00;99.90;;;;;;4146194;28;20387;-60
2022/11/02 01:04:48;;;;;;;117.37;53.40;;;8.00;99.90;;;;;;4156660;28;20099;-65
2022/11/02 01:06:49;;;;;;;101.70;52.97;;;8.00;99.90;;;;;;4161510;28;20087;-64
2022/11/02 01:08:51;;;;;;;102.73;52.17;;;8.00;99.90;;;;;;4161843;28;20099;-63
2022/11/02 01:10:52;;;;;;;101.53;46.67;;;8.00;99.90;;;;;;4159776;28;20079;-58
2022/11/02 01:12:54;;;;;;;54.57;23.23;;;8.10;99.90;;;;;;4157021;28;20034;-67
2022/11/02 01:14:55;;;;;;;48.43;21.87;;;8.00;99.90;;;;;;4160308;28;20037;-65
2022/11/02 01:16:56;;;;;;;33.83;17.70;;;8.00;99.90;;;;;;4161739;28;20115;-61
2022/11/02 01:18:58;;;;;;;32.73;15.40;;;8.00;99.90;;;;;;4162097;28;20079;-65
2022/11/02 01:20:59;;;;;;;32.10;15.27;;;8.10;99.90;;;;;;4160495;28;20053;-68
2022/11/02 01:23:00;;;;;;;92.67;46.67;;;8.10;99.90;;;;;;4162556;28;20056;-63
2022/11/02 01:25:02;;;;;;;128.87;61.77;;;8.00;99.90;;;;;;4151187;28;20498;-61
2022/11/02 01:27:04;;;;;;;79.13;46.23;;;8.00;99.90;;;;;;4145564;28;20564;-64
2022/11/02 01:29:05;;;;;;;62.10;35.20;;;7.90;99.90;;;;;;4145010;28;20441;-65
2022/11/02 01:31:07;;;;;;;57.17;33.97;;;7.80;99.90;;;;;;4145656;28;20046;-59
2022/11/02 01:33:08;;;;;;;89.10;43.53;;;7.70;99.90;;;;;;4144934;28;20022;-68
2022/11/02 01:35:09;;;;;;;47.53;30.93;;;7.60;99.90;;;;;;4145598;28;20034;-65
2022/11/02 01:37:10;;;;;;;47.80;31.47;;;7.50;99.90;;;;;;4144042;28;20034;-63
2022/11/02 01:39:12;;;;;;;42.87;26.73;;;7.50;99.90;;;;;;4144982;28;20092;-68
2022/11/02 01:41:15;;;;;;;28.33;19.43;;;7.40;99.90;;;;;;4148583;28;20489;-65
2022/11/02 01:43:40;;;;;;;33.90;22.83;;;7.40;99.90;;;;;;4161711;28;20053;-69
2022/11/02 01:45:42;;;;;;;34.47;21.73;;;7.30;99.90;;;;;;4144983;28;20514;-63
2022/11/02 01:47:47;;;;;;;36.67;21.50;;;7.30;99.90;;;;;;4145260;28;20096;-68
2022/11/02 01:49:52;;;;;;;29.33;15.23;;;7.30;99.90;;;;;;4144189;28;20046;-61
2022/11/02 01:52:03;;;;;;;33.33;20.47;;;7.40;99.90;;;;;;4145232;28;20039;-64
2022/11/02 01:54:11;;;;;;;38.07;25.97;;;7.40;99.90;;;;;;4144685;28;20022;-61
2022/11/02 01:56:16;;;;;;;44.77;29.43;;;7.40;99.90;;;;;;4144669;28;20072;-66
2022/11/02 01:58:17;;;;;;;25.70;16.20;;;7.40;99.90;;;;;;4144166;28;20111;-62
2022/11/02 02:00:19;;;;;;;17.20;10.70;;;7.40;99.90;;;;;;4144462;28;20099;-61
2022/11/02 02:02:23;;;;;;;19.30;10.80;;;7.30;99.90;;;;;;4153411;28;20060;-58
2022/11/02 02:04:25;;;;;;;18.00;10.50;;;7.20;99.90;;;;;;4157730;28;20033;-68
2022/11/02 02:06:27;;;;;;;20.77;11.33;;;7.10;99.90;;;;;;4144414;28;20443;-59
2022/11/02 02:08:30;;;;;;;14.90;9.83;;;7.20;99.90;;;;;;4144397;28;20363;-68
2022/11/02 02:10:31;;;;;;;16.53;9.83;;;7.10;99.90;;;;;;4145699;28;20041;-59
2022/11/02 02:12:35;;;;;;;20.10;9.50;;;7.10;99.90;;;;;;4159357;28;20038;-68
2022/11/02 02:14:36;;;;;;;18.07;9.87;;;7.20;99.90;;;;;;4158434;28;20029;-67
2022/11/02 02:16:53;;;;;;;20.43;9.40;;;7.20;99.90;;;;;;4156693;28;20312;-58
2022/11/02 02:18:59;;;;;;;19.73;10.73;;;7.20;99.90;;;;;;4161136;28;20068;-64
2022/11/02 02:21:22;;;;;;;24.93;17.90;;;7.30;99.90;;;;;;4159905;28;20045;-66
2022/11/02 02:23:30;;;;;;;25.47;17.73;;;7.30;99.90;;;;;;4161573;28;20037;-63
2022/11/02 02:25:56;;;;;;;24.67;15.53;;;7.30;99.90;;;;;;4159935;28;20092;-68
2022/11/02 02:28:11;;;;;;;20.70;13.10;;;7.30;99.90;;;;;;4161046;28;20084;-68
2022/11/02 02:30:12;;;;;;;20.27;11.50;;;7.40;99.90;;;;;;4159974;28;20045;-67
2022/11/02 02:32:33;;;;;;;18.00;10.70;;;7.40;99.90;;;;;;4156194;28;20033;-61
2022/11/02 02:34:42;;;;;;;29.55;16.60;;;7.40;99.90;;;;;;4159868;28;20482;-68
2022/11/02 02:36:56;;;;;;;46.13;28.33;;;7.30;99.90;;;;;;4160758;28;20099;-68
2022/11/02 02:39:11;;;;;;;53.93;29.00;;;7.30;99.90;;;;;;4159893;28;20107;-65
2022/11/02 02:41:30;;;;;;;33.23;17.90;;;7.30;99.90;;;;;;4160709;28;20037;-61
2022/11/02 02:43:48;;;;;;;21.60;11.80;;;7.30;99.90;;;;;;4160856;28;20087;-69
2022/11/02 02:45:59;;;;;;;28.90;13.43;;;7.20;99.90;;;;;;4146985;28;20088;-64
2022/11/02 02:48:16;;;;;;;23.23;11.67;;;7.20;99.90;;;;;;4143647;28;20054;-69
2022/11/02 02:50:22;;;;;;;21.77;12.20;;;7.20;99.90;;;;;;4144351;28;20030;-67
2022/11/02 02:52:25;;;;;;;20.07;11.13;;;7.20;99.90;;;;;;4144720;28;20057;-68
2022/11/02 02:54:35;;;;;;;22.93;12.87;;;7.20;99.90;;;;;;4144360;28;20018;-68
2022/11/02 02:56:43;;;;;;;26.77;12.70;;;7.20;99.90;;;;;;4143974;28;20033;-68
2022/11/02 02:59:00;;;;;;;23.63;11.83;;;7.20;99.90;;;;;;4144446;28;20434;-66
2022/11/02 03:01:03;;;;;;;25.57;10.90;;;7.20;99.90;;;;;;4145210;28;20473;-58
2022/11/02 03:03:05;;;;;;;26.30;11.63;;;7.10;99.90;;;;;;4143799;28;20046;-68
2022/11/02 03:05:29;;;;;;;17.83;10.43;;;7.20;99.90;;;;;;4146904;28;20359;-69
2022/11/02 03:07:33;;;;;;;21.07;10.33;;;7.20;99.90;;;;;;4159991;28;20033;-66
2022/11/02 03:09:48;;;;;;;20.17;10.97;;;7.20;99.90;;;;;;4160259;28;20029;-68
2022/11/02 03:12:15;;;;;;;22.77;11.73;;;7.30;99.90;;;;;;4159948;28;20033;-66
2022/11/02 03:14:21;;;;;;;25.70;12.07;;;7.30;99.90;;;;;;4157484;28;20100;-67
2022/11/02 03:16:28;;;;;;;23.80;13.47;;;7.30;99.90;;;;;;4143020;28;20031;-67
2022/11/02 03:18:47;;;;;;;20.80;12.00;;;7.40;99.90;;;;;;4146950;28;20502;-64
2022/11/02 03:21:21;;;;;;;28.50;12.10;;;7.40;99.90;;;;;;4143842;28;20054;-67
2022/11/02 03:23:42;;;;;;;24.50;12.97;;;7.50;99.90;;;;;;4144845;28;20312;-63
2022/11/02 03:25:52;;;;;;;22.67;11.53;;;7.50;99.90;;;;;;4147192;28;20037;-68
2022/11/02 03:28:02;;;;;;;21.90;12.00;;;7.50;99.90;;;;;;4160542;28;20076;-67
2022/11/02 03:30:17;;;;;;;44.10;12.65;;;7.50;99.90;;;;;;4159606;28;20029;-68
2022/11/02 03:32:33;;;;;;;19.30;10.90;;;7.50;99.90;;;;;;4161232;28;20038;-67
2022/11/02 03:34:47;;;;;;;19.57;11.47;;;7.40;99.90;;;;;;4146339;28;20095;-66
2022/11/02 03:37:02;;;;;;;23.17;11.90;;;7.40;99.90;;;;;;4129320;28;20438;-65
2022/11/02 03:39:07;;;;;;;20.17;12.23;;;7.50;99.90;;;;;;4145855;28;20395;-67
2022/11/02 03:41:10;;;;;;;24.67;12.70;;;7.60;99.90;;;;;;4147443;28;20160;-66
2022/11/02 03:43:13;;;;;;;18.57;11.53;;;7.50;99.90;;;;;;4145576;28;20068;-66
2022/11/02 03:45:21;;;;;;;25.73;12.17;;;7.60;99.90;;;;;;4146984;28;20077;-66
2022/11/02 03:47:24;;;;;;;23.00;11.50;;;7.60;99.90;;;;;;4157411;28;20045;-68
2022/11/02 03:49:27;;;;;;;23.10;12.57;;;7.60;99.90;;;;;;4163920;28;20490;-68
2022/11/02 03:51:30;;;;;;;18.80;11.63;;;7.60;99.90;;;;;;4162748;28;20026;-64
2022/11/02 03:54:03;;;;;;;24.33;11.63;;;7.60;99.90;;;;;;4162831;28;20555;-68
2022/11/02 03:56:13;;;;;;;20.83;11.90;;;7.60;99.90;;;;;;4157677;28;20152;-66
2022/11/02 03:58:14;;;;;;;21.50;12.15;;;7.60;99.90;;;;;;4163003;28;20053;-67
2022/11/02 04:00:19;;;;;;;23.43;12.47;;;7.60;99.90;;;;;;4161750;28;20117;-61
2022/11/02 04:02:20;;;;;;;19.53;11.00;;;7.60;99.90;;;;;;4161280;28;20092;-66
2022/11/02 04:04:21;;;;;;;21.27;11.77;;;7.60;99.90;;;;;;4162451;28;20433;-68
2022/11/02 04:06:24;;;;;;;22.17;11.73;;;7.60;99.90;;;;;;4161942;28;20033;-67
2022/11/02 04:08:36;;;;;;;16.17;10.30;;;7.50;99.90;;;;;;4145327;28;20171;-61
2022/11/02 04:14:36;;;;;;;17.00;10.23;;;7.50;99.90;;;;;;4146380;28;20515;-67
2022/11/02 04:15:18;;;;;;;21.77;10.93;;;7.50;99.90;;;;;;4147615;28;20438;-62
2022/11/02 04:19:39;;;;;;;15.77;10.20;;;7.40;99.90;;;;;;4147390;28;20083;-64
2022/11/02 04:25:14;;;;;;;18.97;10.23;;;7.40;99.90;;;;;;4148732;28;20349;-67
2022/11/02 04:26:21;;;;;;;16.37;8.23;;;7.20;99.90;;;;;;4145966;28;20108;-65
2022/11/02 04:28:22;;;;;;;13.47;8.10;;;7.10;99.90;;;;;;4159257;28;20033;-65
2022/11/02 04:30:23;;;;;;;14.50;8.67;;;7.10;99.90;;;;;;4161465;28;20068;-67
2022/11/02 04:34:44;;;;;;;11.80;7.90;;;7.10;99.90;;;;;;4162734;28;20556;-66
2022/11/02 04:36:45;;;;;;;14.17;8.57;;;7.20;99.90;;;;;;4161892;28;20041;-68
2022/11/02 04:38:46;;;;;;;13.37;8.97;;;7.20;99.90;;;;;;4161209;28;20042;-63
2022/11/02 04:40:47;;;;;;;11.53;8.20;;;7.20;99.90;;;;;;4160549;28;20132;-63
2022/11/02 04:42:48;;;;;;;15.13;9.40;;;7.10;99.90;;;;;;4161927;28;20037;-66
2022/11/02 04:44:49;;;;;;;14.23;8.70;;;7.20;99.90;;;;;;4160080;28;20037;-68
2022/11/02 04:46:50;;;;;;;15.43;8.73;;;7.10;99.90;;;;;;4146693;28;20033;-64
2022/11/02 04:48:52;;;;;;;15.47;8.33;;;7.10;99.90;;;;;;4160779;28;20057;-68
2022/11/02 04:50:53;;;;;;;22.20;8.83;;;7.10;99.90;;;;;;4159018;28;20500;-60
2022/11/02 04:52:59;;;;;;;15.73;9.10;;;7.10;99.90;;;;;;4144582;28;20038;-61
2022/11/02 04:55:00;;;;;;;18.03;11.03;;;7.10;99.90;;;;;;4146083;28;20026;-69
2022/11/02 04:57:01;;;;;;;14.97;9.27;;;7.10;99.90;;;;;;4145253;28;20034;-67
2022/11/02 04:59:02;;;;;;;17.67;8.57;;;7.10;99.90;;;;;;4145382;28;20050;-60
2022/11/02 05:01:08;;;;;;;12.50;8.37;;;7.00;99.90;;;;;;4150933;28;20057;-56
2022/11/02 05:03:09;;;;;;;26.50;18.60;;;7.00;99.90;;;;;;4162537;28;20461;-67
2022/11/02 05:05:11;;;;;;;28.60;21.67;;;6.90;99.90;;;;;;4161331;28;20034;-68
2022/11/02 05:07:12;;;;;;;30.77;18.37;;;7.00;99.90;;;;;;4161597;28;20765;-68
2022/11/02 05:09:13;;;;;;;23.90;13.23;;;6.90;99.90;;;;;;4161347;28;20462;-68
2022/11/02 05:11:15;;;;;;;15.13;8.63;;;6.90;99.90;;;;;;4155695;28;20478;-66
2022/11/02 05:13:16;;;;;;;15.77;8.63;;;6.80;99.90;;;;;;4144697;28;20466;-62
2022/11/02 05:15:17;;;;;;;14.93;8.47;;;6.80;99.90;;;;;;4145101;28;20096;-60
2022/11/02 05:17:18;;;;;;;14.43;9.27;;;6.70;99.90;;;;;;4144504;28;20022;-64
2022/11/02 05:19:19;;;;;;;18.50;9.60;;;6.70;99.90;;;;;;4144691;28;20505;-61
2022/11/02 05:21:20;;;;;;;17.00;9.23;;;6.70;99.90;;;;;;4144467;28;20042;-64
2022/11/02 05:23:22;;;;;;;16.93;9.30;;;6.70;99.90;;;;;;4145608;28;20088;-63
2022/11/02 05:25:23;;;;;;;18.13;9.40;;;6.70;99.90;;;;;;4146280;28;20042;-62
2022/11/02 05:27:24;;;;;;;17.60;10.20;;;6.70;99.90;;;;;;4158846;28;20022;-63
2022/11/02 05:29:25;;;;;;;17.17;8.87;;;6.70;99.90;;;;;;4160622;28;20084;-60
2022/11/02 05:31:27;;;;;;;18.33;9.37;;;6.80;99.90;;;;;;4159081;28;20565;-61
2022/11/02 05:33:29;;;;;;;16.37;9.90;;;6.70;99.90;;;;;;4161207;28;20096;-61
2022/11/02 05:35:30;;;;;;;16.40;9.20;;;6.80;99.90;;;;;;4146639;28;20127;-65
2022/11/02 05:37:32;;;;;;;16.27;9.67;;;6.80;99.90;;;;;;4161986;28;20095;-59
2022/11/02 05:39:33;;;;;;;16.13;8.60;;;6.80;99.90;;;;;;4160728;28;20068;-62
2022/11/02 05:41:34;;;;;;;19.37;8.90;;;6.80;99.90;;;;;;4160999;28;20037;-61
2022/11/02 05:43:35;;;;;;;16.80;10.07;;;6.70;99.90;;;;;;4144860;28;20038;-62
2022/11/02 05:45:36;;;;;;;19.73;10.83;;;6.80;99.90;;;;;;4146297;28;20108;-60
2022/11/02 05:47:37;;;;;;;20.70;10.43;;;6.80;99.90;;;;;;4156316;28;20104;-62
2022/11/02 05:49:38;;;;;;;17.73;10.07;;;6.80;99.90;;;;;;4149942;28;20065;-61
2022/11/02 05:51:39;;;;;;;18.20;10.43;;;6.90;99.90;;;;;;4145917;28;20014;-64
2022/11/02 05:53:41;;;;;;;17.03;10.00;;;6.80;99.90;;;;;;4149277;28;20193;-64
2022/11/02 05:55:42;;;;;;;18.70;11.10;;;6.80;99.90;;;;;;4168779;28;20045;-65
2022/11/02 05:57:43;;;;;;;18.43;9.83;;;6.90;99.90;;;;;;4146798;28;20038;-64
2022/11/02 05:59:44;;;;;;;18.23;10.73;;;6.90;99.90;;;;;;4149322;28;20112;-60
2022/11/02 06:01:45;;;;;;;15.43;9.87;;;7.00;99.90;;;;;;4150609;28;20084;-62
2022/11/02 06:03:46;;;;;;;15.30;9.80;;;7.10;99.90;;;;;;4145479;28;20034;-69
2022/11/02 06:05:55;;;;;;;19.40;9.93;;;7.10;99.90;;;;;;4144113;28;20042;-62
2022/11/02 06:08:00;;;;;;;16.20;8.87;;;7.10;99.90;;;;;;4145317;28;20076;-63
2022/11/02 06:10:02;;;;;;;16.63;9.57;;;7.10;99.90;;;;;;4143133;28;20041;-61
2022/11/02 06:12:03;;;;;;;16.43;9.60;;;7.20;99.90;;;;;;4155663;28;20359;-67
2022/11/02 06:14:04;;;;;;;13.37;9.13;;;7.10;99.90;;;;;;4159153;28;20045;-59
2022/11/02 06:16:08;;;;;;;15.27;8.97;;;7.20;99.90;;;;;;4160379;28;20053;-67
2022/11/02 06:18:09;;;;;;;14.47;8.47;;;7.10;99.90;;;;;;4159082;28;20620;-62
2022/11/02 06:20:10;;;;;;;15.03;8.80;;;7.10;99.90;;;;;;4160129;28;20099;-60
2022/11/02 06:22:11;;;;;;;19.60;9.30;;;7.10;99.90;;;;;;4160154;28;20465;-60
2022/11/02 06:24:13;;;;;;;20.27;8.73;;;7.10;99.90;;;;;;4160506;28;20037;-61
2022/11/02 06:26:14;;;;;;;15.17;8.57;;;7.10;99.90;;;;;;4160540;28;20060;-67
2022/11/02 06:28:15;;;;;;;14.77;8.33;;;7.10;99.90;;;;;;4160463;28;20052;-67
2022/11/02 06:30:16;;;;;;;13.17;8.20;;;7.10;99.90;;;;;;4161162;28;20038;-64
2022/11/02 06:32:17;;;;;;;14.83;8.63;;;7.10;99.90;;;;;;4160677;28;20083;-62
2022/11/02 06:34:19;;;;;;;14.67;8.63;;;7.10;99.90;;;;;;4161335;28;20552;-66
2022/11/02 06:36:20;;;;;;;12.83;8.50;;;7.10;99.90;;;;;;4159392;28;20080;-61
2022/11/02 06:38:21;;;;;;;12.63;7.97;;;7.20;99.90;;;;;;4160530;28;20049;-60
2022/11/02 06:40:22;;;;;;;20.10;9.73;;;7.20;99.90;;;;;;4159487;28;20092;-61
2022/11/02 06:42:23;;;;;;;21.43;9.30;;;7.30;99.90;;;;;;4161065;28;20485;-63
2022/11/02 06:44:24;;;;;;;18.77;8.30;;;7.40;99.90;;;;;;4160117;28;20022;-64
2022/11/02 06:46:25;;;;;;;18.63;9.67;;;7.40;99.90;;;;;;4161207;28;20030;-61
2022/11/02 06:48:27;;;;;;;18.90;9.20;;;7.40;99.90;;;;;;4159881;28;20156;-65
2022/11/02 06:50:28;;;;;;;17.20;8.27;;;7.50;99.90;;;;;;4160549;28;20087;-64
2022/11/02 06:52:29;;;;;;;19.40;8.47;;;7.60;99.90;;;;;;4159589;28;20033;-60
2022/11/02 06:54:30;;;;;;;21.10;8.30;;;7.50;99.90;;;;;;4160555;28;20071;-62
2022/11/02 06:56:32;;;;;;;17.40;7.87;;;7.50;99.90;;;;;;4160567;28;20022;-61
2022/11/02 06:58:33;;;;;;;17.67;7.97;;;7.50;99.90;;;;;;4159556;28;20050;-62
2022/11/02 07:00:34;;;;;;;19.00;8.27;;;7.50;99.90;;;;;;4160874;28;20076;-64
2022/11/02 07:02:35;;;;;;;22.43;9.33;;;7.50;99.90;;;;;;4159227;28;20473;-58
2022/11/02 07:04:36;;;;;;;14.10;9.33;;;7.60;99.90;;;;;;4159766;28;20378;-68
2022/11/02 07:06:37;;;;;;;14.80;8.40;;;7.60;99.90;;;;;;4158967;28;20090;-61
2022/11/02 07:08:38;;;;;;;20.80;11.23;;;7.80;99.90;;;;;;4160069;28;20041;-61
2022/11/02 07:10:40;;;;;;;30.40;13.60;;;7.80;99.90;;;;;;4159641;28;20091;-61
2022/11/02 07:12:41;;;;;;;17.97;8.53;;;7.90;99.90;;;;;;4163185;28;20103;-64
2022/11/02 07:14:42;;;;;;;21.03;9.20;;;8.00;99.90;;;;;;4163079;28;20083;-61
2022/11/02 07:16:43;;;;;;;27.37;10.00;;;8.00;99.90;;;;;;4163811;28;20029;-60
2022/11/02 07:18:44;;;;;;;21.67;9.17;;;8.10;99.90;;;;;;4162835;28;20428;-59
2022/11/02 07:20:45;;;;;;;18.13;9.43;;;8.20;99.90;;;;;;4163729;28;20460;-61
2022/11/02 07:22:58;;;;;;;22.73;9.60;;;8.20;99.90;;;;;;4162210;28;20088;-63
2022/11/02 07:24:59;;;;;;;22.17;9.47;;;8.20;99.90;;;;;;4163251;28;20183;-61
2022/11/02 07:27:00;;;;;;;23.57;9.40;;;8.30;99.90;;;;;;4163144;28;20152;-59
2022/11/02 07:29:01;;;;;;;21.77;9.57;;;8.30;99.90;;;;;;4163363;28;20029;-60
2022/11/02 07:31:02;;;;;;;29.03;10.67;;;8.30;99.90;;;;;;4163159;28;20425;-62
2022/11/02 07:33:03;;;;;;;29.70;10.70;;;8.40;99.90;;;;;;4162059;28;20474;-66
2022/11/02 07:35:05;;;;;;;23.40;11.20;;;8.50;99.90;;;;;;4163685;28;20095;-65
2022/11/02 07:37:07;;;;;;;29.10;11.60;;;8.70;99.90;;;;;;4162778;28;20026;-64
2022/11/02 07:39:08;;;;;;;35.43;11.43;;;8.80;99.90;;;;;;4163789;28;20033;-64
2022/11/02 07:41:09;;;;;;;33.93;12.17;;;8.80;99.90;;;;;;4162465;28;20425;-61
2022/11/02 07:43:10;;;;;;;28.93;12.23;;;8.90;99.90;;;;;;4163521;28;20168;-64
2022/11/02 07:45:11;;;;;;;33.77;11.97;;;8.90;99.90;;;;;;4162408;28;20095;-66
2022/11/02 07:47:12;;;;;;;38.53;14.20;;;9.00;99.90;;;;;;4163411;28;20099;-62
2022/11/02 07:49:14;;;;;;;37.53;13.90;;;9.00;99.90;;;;;;4162314;28;20084;-61
2022/11/02 07:51:15;;;;;;;41.77;14.50;;;9.10;99.90;;;;;;4163542;28;20080;-63
2022/11/02 07:53:16;;;;;;;33.97;14.10;;;9.20;99.90;;;;;;4161446;28;20037;-63
2022/11/02 07:55:22;;;;;;;38.00;13.83;;;9.30;99.90;;;;;;4162477;28;20041;-65
2022/11/02 07:57:24;;;;;;;38.67;14.20;;;9.40;99.90;;;;;;4161693;28;20033;-61
2022/11/02 07:59:25;;;;;;;36.27;14.53;;;9.50;99.90;;;;;;4162875;28;20413;-65
2022/11/02 08:01:26;;;;;;;36.83;14.33;;;9.60;99.90;;;;;;4162607;28;20031;-64
2022/11/02 08:03:28;;;;;;;37.27;14.57;;;9.70;99.90;;;;;;4163018;28;20029;-61
2022/11/02 08:05:30;;;;;;;36.13;14.10;;;9.80;99.90;;;;;;4162341;28;20087;-63
2022/11/02 08:07:32;;;;;;;41.97;13.90;;;9.80;99.90;;;;;;4161990;28;20033;-61
2022/11/02 08:09:33;;;;;;;30.87;13.33;;;9.90;99.90;;;;;;4162430;28;20103;-61
2022/11/02 08:11:34;;;;;;;31.33;12.63;;;9.80;99.90;;;;;;4161062;28;20045;-64
2022/11/02 08:13:36;;;;;;;30.03;13.03;;;9.90;99.90;;;;;;4163238;28;20068;-62
2022/11/02 08:15:37;;;;;;;32.80;13.90;;;10.00;99.90;;;;;;4161544;28;20042;-67
2022/11/02 08:17:38;;;;;;;31.60;13.83;;;10.00;99.90;;;;;;4162912;28;20083;-61
2022/11/02 08:19:40;;;;;;;37.17;15.00;;;10.10;99.90;;;;;;4161981;28;20095;-68
2022/11/02 08:21:41;;;;;;;31.90;14.37;;;10.20;99.90;;;;;;4162176;28;20053;-64
2022/11/02 08:23:42;;;;;;;31.20;13.50;;;10.30;99.90;;;;;;4162031;28;20100;-66
2022/11/02 08:25:44;;;;;;;32.07;14.50;;;10.30;99.90;;;;;;4162134;28;20037;-63
2022/11/02 08:27:46;;;;;;;33.87;14.50;;;10.40;99.90;;;;;;4161914;28;20080;-63
2022/11/02 08:29:47;;;;;;;39.93;15.37;;;10.50;99.90;;;;;;4162461;28;20428;-62
2022/11/02 08:31:48;;;;;;;34.03;14.53;;;10.50;99.90;;;;;;4162130;28;20083;-64
2022/11/02 08:33:49;;;;;;;31.30;15.13;;;10.50;99.90;;;;;;4162436;28;20029;-61
2022/11/02 08:35:52;;;;;;;37.03;15.77;;;10.40;99.90;;;;;;4161292;28;20033;-62
2022/11/02 08:37:56;;;;;;;35.97;14.80;;;10.40;99.90;;;;;;4161877;28;20022;-69
2022/11/02 08:39:57;;;;;;;40.43;14.77;;;10.50;99.90;;;;;;4162843;28;20025;-63
2022/11/02 08:41:58;;;;;;;34.70;16.30;;;10.50;99.90;;;;;;4161628;28;20037;-64
2022/11/02 08:44:00;;;;;;;35.37;15.50;;;10.50;99.90;;;;;;4162654;28;20067;-62
2022/11/02 08:46:02;;;;;;;36.33;15.63;;;10.60;99.90;;;;;;4161525;28;20091;-64
2022/11/02 08:48:03;;;;;;;38.93;17.40;;;10.70;99.90;;;;;;4161992;28;20486;-62
2022/11/02 08:50:05;;;;;;;36.47;15.73;;;10.80;99.90;;;;;;4161241;28;20567;-66
2022/11/02 08:52:06;;;;;;;32.60;15.50;;;10.80;99.90;;;;;;4162727;28;20075;-61
2022/11/02 08:54:07;;;;;;;39.33;18.60;;;10.80;99.90;;;;;;4161367;28;20072;-61
2022/11/02 08:56:08;;;;;;;37.00;16.53;;;10.70;99.90;;;;;;4162286;28;20048;-62
2022/11/02 08:58:09;;;;;;;35.60;15.80;;;10.70;99.90;;;;;;4161106;28;20286;-60
2022/11/02 09:00:11;;;;;;;34.43;16.70;;;10.70;99.90;;;;;;4162017;28;20425;-62
2022/11/02 09:02:12;;;;;;;36.53;16.53;;;10.80;99.90;;;;;;4161181;28;20033;-65
2022/11/02 09:04:13;;;;;;;33.40;15.97;;;10.80;99.90;;;;;;4161895;28;20037;-65
2022/11/02 09:06:14;;;;;;;38.17;15.53;;;10.90;99.90;;;;;;4160895;28;20025;-61
2022/11/02 09:08:18;;;;;;;37.00;16.80;;;10.90;99.90;;;;;;4161168;28;20088;-66
2022/11/02 09:10:19;;;;;;;39.40;16.87;;;10.90;99.90;;;;;;4161774;28;20148;-62
2022/11/02 09:12:20;;;;;;;38.30;16.40;;;11.00;99.90;;;;;;4159819;28;20611;-63
2022/11/02 09:14:21;;;;;;;29.40;15.53;;;11.00;99.90;;;;;;4161837;28;20072;-63
2022/11/02 09:16:22;;;;;;;32.00;15.07;;;11.10;99.90;;;;;;4159778;28;20041;-63
2022/11/02 09:18:24;;;;;;;38.93;17.13;;;11.10;99.90;;;;;;4162057;28;20432;-61
2022/11/02 09:20:25;;;;;;;39.07;16.03;;;11.20;99.90;;;;;;4160924;28;20076;-66
2022/11/02 09:22:26;;;;;;;44.63;16.57;;;11.20;99.90;;;;;;4161662;28;20092;-64
2022/11/02 09:24:27;;;;;;;37.30;16.37;;;11.20;99.90;;;;;;4159795;28;20088;-66
2022/11/02 09:26:28;;;;;;;40.03;16.90;;;11.20;99.90;;;;;;4161669;28;20508;-63
2022/11/02 09:28:29;;;;;;;39.00;17.77;;;11.30;99.90;;;;;;4160043;28;20041;-62
2022/11/02 09:30:31;;;;;;;38.00;16.97;;;11.30;99.90;;;;;;4160787;28;20045;-63
2022/11/02 09:32:32;;;;;;;33.30;17.13;;;11.30;99.90;;;;;;4160719;28;20033;-66
2022/11/02 09:34:33;;;;;;;36.63;17.60;;;11.30;99.90;;;;;;4160353;28;20060;-67
2022/11/02 09:36:34;;;;;;;35.43;17.93;;;11.30;99.90;;;;;;4160396;28;20987;-65
2022/11/02 09:38:36;;;;;;;39.87;18.23;;;11.40;99.90;;;;;;4160269;28;20095;-64
2022/11/02 09:40:40;;;;;;;38.17;17.83;;;11.40;99.90;;;;;;4161586;28;20034;-67
2022/11/02 09:43:04;;;;;;;36.27;16.80;;;11.30;99.90;;;;;;4160626;28;20053;-64
2022/11/02 09:45:17;;;;;;;37.23;18.10;;;11.30;99.90;;;;;;4161263;28;20025;-61
2022/11/02 09:47:20;;;;;;;39.37;18.13;;;11.40;99.90;;;;;;4160895;28;20030;-63
2022/11/02 09:49:24;;;;;;;37.73;17.70;;;11.40;99.90;;;;;;4161073;28;20072;-63
2022/11/02 09:51:45;;;;;;;44.67;18.07;;;11.40;99.90;;;;;;4160633;28;20034;-64
2022/11/02 09:53:55;;;;;;;35.13;17.17;;;11.50;99.90;;;;;;4159791;28;20042;-62
2022/11/02 09:55:59;;;;;;;39.53;19.20;;;11.50;99.90;;;;;;4160666;28;20170;-60
2022/11/02 09:58:10;;;;;;;39.80;19.33;;;11.60;99.90;;;;;;4160499;28;20033;-62
2022/11/02 10:00:17;;;;;;;41.83;19.10;;;11.60;99.90;;;;;;4160441;28;20132;-69
2022/11/02 10:02:49;;;;;;;40.00;19.63;;;11.60;99.90;;;;;;4160158;28;20053;-62
2022/11/02 10:05:35;;;;;;;46.60;20.70;;;11.60;99.90;;;;;;4160561;28;20112;-62
2022/11/02 10:07:46;;;;;;;42.27;19.57;;;11.70;99.90;;;;;;4155413;28;20041;-61
2022/11/02 10:10:07;;;;;;;41.38;19.35;;;11.70;99.90;;;;;;4161268;28;20029;-60
2022/11/02 10:12:20;;;;;;;39.70;19.43;;;11.70;99.90;;;;;;4159401;28;20565;-60
2022/11/02 10:14:31;;;;;;;37.13;18.83;;;11.70;99.90;;;;;;4161204;28;20441;-61
2022/11/02 10:16:37;;;;;;;40.97;19.30;;;11.70;99.90;;;;;;4141664;28;20046;-62
2022/11/02 10:18:39;;;;;;;39.53;19.93;;;11.80;99.90;;;;;;4160634;28;20441;-64
2022/11/02 10:20:45;;;;;;;46.00;19.07;;;11.80;99.90;;;;;;4159534;28;20092;-61
2022/11/02 10:22:46;;;;;;;42.50;20.90;;;11.80;99.90;;;;;;4161310;28;20485;-62
2022/11/02 10:24:50;;;;;;;40.07;20.17;;;11.80;99.90;;;;;;4160256;28;20468;-62
2022/11/02 10:26:55;;;;;;;41.93;20.30;;;11.90;99.90;;;;;;4161192;28;20021;-61
2022/11/02 10:29:14;;;;;;;40.43;20.23;;;11.90;99.90;;;;;;4160181;28;20458;-61
2022/11/02 10:31:27;;;;;;;36.67;19.70;;;11.90;99.90;;;;;;4161251;28;20026;-63
2022/11/02 10:33:30;;;;;;;37.43;18.83;;;11.90;99.90;;;;;;4160407;28;20021;-61
2022/11/02 10:36:05;;;;;;;37.90;17.60;;;12.00;99.90;;;;;;4161223;28;20112;-63
2022/11/02 10:38:25;;;;;;;31.37;18.13;;;12.00;99.90;;;;;;4159875;28;20362;-61
2022/11/02 10:40:56;;;;;;;29.17;18.70;;;12.00;99.90;;;;;;4161063;28;20025;-62
2022/11/02 10:43:13;;;;;;;31.23;18.13;;;12.10;99.90;;;;;;4159922;28;20030;-65
2022/11/02 10:45:38;;;;;;;36.67;16.83;;;12.10;99.90;;;;;;4160425;28;20108;-63
2022/11/02 10:48:02;;;;;;;31.67;17.90;;;12.10;99.90;;;;;;4163139;28;20543;-62